Time;durP1;ratioP1;P1;durP2;ratioP2;P2;SDS_P1;SDS_P2;PMS_P1;PMS_P2;Temp;Humidity;BMP_temperature;BMP_pressure;BME280_temperature;BME280_humidity;BME280_pressure;Samples;Min_cycle;Max_cycle;Signal;HPM_P1;HPM_P2
2024/01/17 00:02:23;;;;;;;;;;;15.70;50.50;;;;;;10325723;28;93313;-46
2024/01/17 00:07:24;;;;;;;;;;;15.70;50.50;;;;;;10326610;28;94361;-48
2024/01/17 00:12:26;;;;;;;;;;;15.70;50.30;;;;;;10325249;28;93867;-45
2024/01/17 00:17:28;;;;;;;;;;;15.70;50.00;;;;;;10327516;28;94497;-49
2024/01/17 00:22:30;;;;;;;;;;;15.70;50.00;;;;;;10317592;28;93084;-47
2024/01/17 00:27:32;;;;;;;;;;;15.60;50.00;;;;;;10319648;28;93810;-45
2024/01/17 00:32:34;;;;;;;;;;;15.70;50.00;;;;;;10324567;28;93432;-48
2024/01/17 00:37:36;;;;;;;;;;;15.70;49.80;;;;;;10323399;28;96847;-49
2024/01/17 00:42:40;;;;;;;;;;;15.70;49.60;;;;;;10325448;28;94553;-70
2024/01/17 00:47:42;;;;;;;;;;;15.70;49.50;;;;;;10324516;28;93973;-48
2024/01/17 00:52:44;;;;;;;;;;;15.70;49.80;;;;;;10325011;28;93837;-49
2024/01/17 00:57:46;;;;;;;;;;;15.60;50.40;;;;;;10324983;28;94017;-50
2024/01/17 01:02:48;;;;;;;;;;;15.70;50.50;;;;;;10324577;28;94223;-46
2024/01/17 01:07:53;;;;;;;;;;;15.70;50.30;;;;;;10324102;28;94339;-48
2024/01/17 01:12:55;;;;;;;;;;;15.70;50.00;;;;;;10326098;28;91865;-50
2024/01/17 01:17:57;;;;;;;;;;;15.70;49.80;;;;;;10331894;28;93387;-50
2024/01/17 01:22:59;;;;;;;;;;;15.60;49.80;;;;;;10331209;28;94197;-46
2024/01/17 01:28:01;;;;;;;;;;;15.70;49.70;;;;;;10316609;28;97158;-47
2024/01/17 01:33:03;;;;;;;;;;;15.70;49.50;;;;;;10330920;28;94019;-48
2024/01/17 01:38:04;;;;;;;;;;;15.70;49.30;;;;;;10329194;28;94497;-46
2024/01/17 01:43:19;;;;;;;;;;;15.70;49.20;;;;;;10329698;28;94086;-43
2024/01/17 01:48:22;;;;;;;;;;;15.70;49.70;;;;;;10330901;28;97374;-45
2024/01/17 01:53:25;;;;;;;;;;;15.70;50.20;;;;;;10328336;28;93376;-52
2024/01/17 01:58:28;;;;;;;;;;;15.70;50.00;;;;;;10322209;28;94074;-48
2024/01/17 02:03:30;;;;;;;;;;;15.70;49.80;;;;;;10683632;22;93690;-62
2024/01/17 02:08:33;;;;;;;;;;;15.70;49.80;;;;;;10276592;28;92988;-62
2024/01/17 02:13:35;;;;;;;;;;;15.70;49.60;;;;;;10288967;28;93386;-62
2024/01/17 02:18:37;;;;;;;;;;;15.70;49.50;;;;;;10285468;28;97149;-61
2024/01/17 02:23:39;;;;;;;;;;;15.70;49.20;;;;;;10286051;28;93520;-62
2024/01/17 02:28:41;;;;;;;;;;;15.70;49.10;;;;;;10288740;28;93465;-62
2024/01/17 02:33:44;;;;;;;;;;;15.70;49.00;;;;;;10289203;28;94485;-62
2024/01/17 02:38:46;;;;;;;;;;;15.70;49.20;;;;;;10285734;28;94709;-62
2024/01/17 02:43:48;;;;;;;;;;;15.70;49.60;;;;;;10287682;28;93680;-62
2024/01/17 02:48:50;;;;;;;;;;;15.70;49.90;;;;;;10291116;28;93555;-63
2024/01/17 02:53:52;;;;;;;;;;;15.70;49.70;;;;;;10283330;28;92905;-63
2024/01/17 02:58:54;;;;;;;;;;;15.80;49.60;;;;;;10298031;28;94084;-62
2024/01/17 03:03:56;;;;;;;;;;;15.80;49.50;;;;;;10291051;28;95046;-62
2024/01/17 03:08:57;;;;;;;;;;;15.80;49.30;;;;;;10285346;28;97134;-62
2024/01/17 03:14:00;;;;;;;;;;;15.90;49.10;;;;;;10281884;28;94693;-62
2024/01/17 03:19:02;;;;;;;;;;;15.80;48.90;;;;;;10284057;28;94477;-63
2024/01/17 03:24:04;;;;;;;;;;;15.80;48.80;;;;;;10281031;28;94782;-62
2024/01/17 03:29:06;;;;;;;;;;;15.80;48.80;;;;;;10285139;28;93817;-62
2024/01/17 03:34:08;;;;;;;;;;;15.80;48.90;;;;;;10282787;28;94401;-62
2024/01/17 03:39:10;;;;;;;;;;;15.70;49.30;;;;;;10269769;28;94768;-62
2024/01/17 03:44:11;;;;;;;;;;;15.70;49.60;;;;;;10273730;28;94128;-61
2024/01/17 03:49:13;;;;;;;;;;;15.70;50.50;;;;;;10282451;28;94512;-62
2024/01/17 03:54:15;;;;;;;;;;;15.70;49.40;;;;;;10265442;28;93859;-62
2024/01/17 03:59:17;;;;;;;;;;;15.80;49.30;;;;;;10287454;28;96025;-63
2024/01/17 04:04:20;;;;;;;;;;;15.80;49.10;;;;;;10260090;28;93451;-63
2024/01/17 04:09:22;;;;;;;;;;;15.70;48.90;;;;;;10283736;28;93405;-62
2024/01/17 04:14:24;;;;;;;;;;;15.70;48.90;;;;;;10253023;28;93504;-61
2024/01/17 04:19:26;;;;;;;;;;;15.70;48.80;;;;;;10254756;28;94477;-61
2024/01/17 04:24:27;;;;;;;;;;;15.70;48.80;;;;;;10271041;28;92703;-62
2024/01/17 04:29:29;;;;;;;;;;;15.70;48.80;;;;;;10281242;28;94408;-63
2024/01/17 04:34:34;;;;;;;;;;;15.70;49.30;;;;;;10284961;28;93666;-62
2024/01/17 04:39:36;;;;;;;;;;;15.60;49.50;;;;;;10284289;28;93650;-62
2024/01/17 04:44:39;;;;;;;;;;;15.60;49.70;;;;;;10277424;28;93409;-62
2024/01/17 04:49:42;;;;;;;;;;;15.60;49.60;;;;;;10280130;28;96027;-62
2024/01/17 04:54:44;;;;;;;;;;;15.60;49.50;;;;;;10267046;28;94448;-71
2024/01/17 04:59:46;;;;;;;;;;;15.70;49.40;;;;;;10274913;28;94500;-62
2024/01/17 05:04:48;;;;;;;;;;;15.60;49.50;;;;;;10272204;28;93390;-62
2024/01/17 05:09:53;;;;;;;;;;;15.70;49.50;;;;;;10277204;28;94684;-62
2024/01/17 05:14:55;;;;;;;;;;;15.90;49.40;;;;;;10267286;28;93434;-62
2024/01/17 05:19:57;;;;;;;;;;;16.20;49.00;;;;;;10269187;28;93426;-63
2024/01/17 05:24:59;;;;;;;;;;;16.50;48.70;;;;;;10273187;28;93104;-62
2024/01/17 05:30:00;;;;;;;;;;;16.70;49.00;;;;;;10274293;28;93470;-62
2024/01/17 05:35:02;;;;;;;;;;;16.80;48.90;;;;;;10277815;28;94477;-62
2024/01/17 05:40:04;;;;;;;;;;;16.80;48.40;;;;;;10274646;28;95829;-63
2024/01/17 05:45:07;;;;;;;;;;;16.80;48.20;;;;;;10275532;28;93411;-62
2024/01/17 05:50:11;;;;;;;;;;;16.70;48.20;;;;;;10265758;28;94480;-62
2024/01/17 05:55:13;;;;;;;;;;;16.60;48.30;;;;;;10280094;28;94324;-62
2024/01/17 06:00:15;;;;;;;;;;;16.60;48.40;;;;;;10278401;28;94385;-62
2024/01/17 06:05:17;;;;;;;;;;;16.70;48.40;;;;;;10283324;28;93455;-62
2024/01/17 06:10:19;;;;;;;;;;;16.80;48.20;;;;;;10285875;28;93371;-62
2024/01/17 06:15:21;;;;;;;;;;;16.90;48.00;;;;;;10280626;28;93644;-67
2024/01/17 06:20:23;;;;;;;;;;;17.10;47.80;;;;;;10276594;28;93894;-62
2024/01/17 06:25:25;;;;;;;;;;;17.20;47.60;;;;;;10280155;28;94592;-62
2024/01/17 06:30:27;;;;;;;;;;;17.20;47.50;;;;;;10267278;28;97047;-61
2024/01/17 06:35:29;;;;;;;;;;;17.10;47.40;;;;;;10278287;28;94564;-62
2024/01/17 06:40:32;;;;;;;;;;;17.10;47.50;;;;;;10287295;28;95004;-62
2024/01/17 06:45:34;;;;;;;;;;;17.10;47.50;;;;;;10293928;28;94399;-62
2024/01/17 06:50:35;;;;;;;;;;;17.00;47.50;;;;;;10281913;28;94135;-61
2024/01/17 06:55:37;;;;;;;;;;;16.80;47.50;;;;;;10289269;28;94755;-62
2024/01/17 07:00:39;;;;;;;;;;;16.70;47.60;;;;;;10265925;28;93424;-62
2024/01/17 07:05:41;;;;;;;;;;;16.70;47.70;;;;;;10287899;28;93084;-62
2024/01/17 07:10:45;;;;;;;;;;;16.50;47.80;;;;;;10285385;28;93246;-62
2024/01/17 07:15:47;;;;;;;;;;;16.40;48.00;;;;;;10284058;28;93434;-62
2024/01/17 07:20:49;;;;;;;;;;;16.30;48.10;;;;;;10286034;28;96748;-63
2024/01/17 07:25:55;;;;;;;;;;;16.20;48.30;;;;;;10278147;28;93408;-62
2024/01/17 07:30:56;;;;;;;;;;;16.10;48.40;;;;;;10272879;28;94109;-62
2024/01/17 07:35:58;;;;;;;;;;;16.00;48.60;;;;;;10281486;28;95561;-62
2024/01/17 07:41:01;;;;;;;;;;;15.90;48.70;;;;;;10282663;28;94494;-62
2024/01/17 07:46:03;;;;;;;;;;;15.80;48.80;;;;;;10273333;28;93424;-62
2024/01/17 07:51:05;;;;;;;;;;;15.70;49.00;;;;;;10274449;28;95176;-63
2024/01/17 07:56:07;;;;;;;;;;;15.60;49.00;;;;;;10268482;28;92520;-63
2024/01/17 08:01:09;;;;;;;;;;;15.50;49.10;;;;;;10274508;28;93614;-66
2024/01/17 08:06:12;;;;;;;;;;;15.50;49.20;;;;;;10282023;28;94623;-63
2024/01/17 08:11:14;;;;;;;;;;;15.40;49.40;;;;;;10263502;28;96737;-62
2024/01/17 08:16:16;;;;;;;;;;;15.40;49.40;;;;;;10268530;28;93483;-62
2024/01/17 08:21:20;;;;;;;;;;;15.30;49.40;;;;;;10280972;28;115278;-62
2024/01/17 08:26:22;;;;;;;;;;;15.30;49.50;;;;;;10283542;28;94516;-62
2024/01/17 08:31:24;;;;;;;;;;;15.20;49.50;;;;;;10280227;28;94330;-62
2024/01/17 08:36:30;;;;;;;;;;;15.10;49.60;;;;;;10291450;28;93681;-62
2024/01/17 08:41:33;;;;;;;;;;;15.10;49.80;;;;;;10293612;28;94617;-61
2024/01/17 08:46:41;;;;;;;;;;;15.20;50.00;;;;;;10293226;28;93165;-63
2024/01/17 08:51:50;;;;;;;;;;;15.20;49.80;;;;;;10288493;28;94859;-62
2024/01/17 08:56:52;;;;;;;;;;;15.30;50.70;;;;;;10287636;28;94383;-62
2024/01/17 09:01:56;;;;;;;;;;;15.40;49.50;;;;;;10278361;28;96815;-62
2024/01/17 09:06:58;;;;;;;;;;;15.40;49.30;;;;;;10274104;28;93630;-62
2024/01/17 09:12:00;;;;;;;;;;;15.40;49.20;;;;;;10271923;28;94452;-62
2024/01/17 09:17:03;;;;;;;;;;;15.40;49.10;;;;;;10277796;28;93669;-62
2024/01/17 09:22:05;;;;;;;;;;;15.40;49.20;;;;;;10269897;28;94495;-62
2024/01/17 09:27:07;;;;;;;;;;;15.30;49.10;;;;;;10279039;28;93922;-62
2024/01/17 09:32:09;;;;;;;;;;;15.30;49.30;;;;;;10279222;28;94029;-62
2024/01/17 09:37:16;;;;;;;;;;;15.20;49.30;;;;;;10276823;28;93829;-65
2024/01/17 09:42:19;;;;;;;;;;;15.20;49.40;;;;;;10289077;28;93449;-62
2024/01/17 09:47:23;;;;;;;;;;;15.10;49.40;;;;;;10287936;28;94055;-62
2024/01/17 09:52:24;;;;;;;;;;;15.10;49.50;;;;;;10281480;28;95939;-62
2024/01/17 09:57:30;;;;;;;;;;;15.10;49.60;;;;;;10279092;28;93812;-62
2024/01/17 10:02:31;;;;;;;;;;;15.10;49.60;;;;;;10267692;28;94524;-62
2024/01/17 10:07:33;;;;;;;;;;;15.00;49.80;;;;;;10284328;28;93536;-62
2024/01/17 10:12:37;;;;;;;;;;;15.00;49.90;;;;;;10269351;28;93747;-62
2024/01/17 10:17:39;;;;;;;;;;;15.10;49.90;;;;;;10277615;28;94595;-62
2024/01/17 10:22:44;;;;;;;;;;;15.20;49.80;;;;;;10282559;28;93651;-62
2024/01/17 10:27:47;;;;;;;;;;;15.30;49.50;;;;;;10311785;28;93635;-62
2024/01/17 10:32:50;;;;;;;;;;;15.30;49.30;;;;;;10326057;28;93521;-62
2024/01/17 10:37:52;;;;;;;;;;;15.30;49.20;;;;;;10324818;28;92993;-62
2024/01/17 10:43:05;;;;;;;;;;;15.40;49.20;;;;;;10309502;28;96528;-62
2024/01/17 10:48:07;;;;;;;;;;;15.30;49.10;;;;;;10286501;28;93705;-63
2024/01/17 10:53:09;;;;;;;;;;;15.30;49.20;;;;;;10270337;28;94453;-62
2024/01/17 10:58:13;;;;;;;;;;;15.20;49.20;;;;;;10281702;28;94549;-63
2024/01/17 11:03:18;;;;;;;;;;;15.20;49.30;;;;;;10265808;28;94488;-63
2024/01/17 11:08:21;;;;;;;;;;;15.10;49.40;;;;;;10288979;28;93217;-62
2024/01/17 11:13:25;;;;;;;;;;;15.10;49.50;;;;;;10265022;28;93444;-62
2024/01/17 11:18:28;;;;;;;;;;;15.00;49.60;;;;;;10275593;28;92977;-62
2024/01/17 11:23:35;;;;;;;;;;;15.00;49.90;;;;;;10287337;28;93366;-62
2024/01/17 11:28:40;;;;;;;;;;;15.00;49.70;;;;;;10271184;28;94277;-62
2024/01/17 11:33:43;;;;;;;;;;;14.90;49.80;;;;;;10273018;28;96798;-62
2024/01/17 11:38:45;;;;;;;;;;;14.90;50.00;;;;;;10278693;28;93910;-62
2024/01/17 11:43:50;;;;;;;;;;;14.90;50.00;;;;;;10261216;28;93343;-62
2024/01/17 11:48:55;;;;;;;;;;;15.00;50.00;;;;;;10273007;28;93373;-62
2024/01/17 11:53:57;;;;;;;;;;;15.10;50.90;;;;;;10267469;28;93399;-62
2024/01/17 11:59:06;;;;;;;;;;;15.10;49.60;;;;;;10268964;28;94821;-62
2024/01/17 12:04:14;;;;;;;;;;;15.20;49.50;;;;;;10279361;28;94828;-62
2024/01/17 12:09:19;;;;;;;;;;;15.20;49.30;;;;;;10272298;28;92750;-62
2024/01/17 12:14:27;;;;;;;;;;;15.20;49.30;;;;;;10276013;28;93678;-61
2024/01/17 12:19:28;;;;;;;;;;;15.20;49.40;;;;;;10285490;28;93474;-62
2024/01/17 12:24:30;;;;;;;;;;;15.10;49.40;;;;;;10265533;28;97120;-62
2024/01/17 12:29:50;;;;;;;;;;;15.10;49.40;;;;;;10268683;28;93492;-62
2024/01/17 12:34:52;;;;;;;;;;;15.00;49.50;;;;;;10282332;28;94032;-62
2024/01/17 12:39:55;;;;;;;;;;;15.00;49.70;;;;;;10264944;28;93529;-62
2024/01/17 12:44:57;;;;;;;;;;;14.90;49.60;;;;;;10266900;28;94394;-62
2024/01/17 12:49:59;;;;;;;;;;;14.90;49.80;;;;;;10281135;28;93975;-62
2024/01/17 12:55:02;;;;;;;;;;;14.80;49.80;;;;;;10282756;28;94789;-62
2024/01/17 13:00:10;;;;;;;;;;;14.80;49.90;;;;;;10283125;28;92706;-63
2024/01/17 13:05:13;;;;;;;;;;;14.80;50.10;;;;;;10281769;28;93813;-62
2024/01/17 13:10:20;;;;;;;;;;;14.80;50.00;;;;;;10289342;28;94320;-62
2024/01/17 13:15:22;;;;;;;;;;;14.90;50.00;;;;;;10290539;28;96934;-62
2024/01/17 13:20:27;;;;;;;;;;;15.00;49.90;;;;;;10290906;28;94464;-62
2024/01/17 13:25:29;;;;;;;;;;;15.00;49.70;;;;;;10291789;28;93944;-62
2024/01/17 13:30:37;;;;;;;;;;;15.10;49.50;;;;;;10280384;28;94524;-62
2024/01/17 13:35:39;;;;;;;;;;;15.10;49.50;;;;;;10278589;28;93415;-62
2024/01/17 13:40:41;;;;;;;;;;;15.00;49.30;;;;;;10287647;28;93371;-62
2024/01/17 13:45:43;;;;;;;;;;;15.00;49.30;;;;;;10291431;28;93398;-62
2024/01/17 13:50:46;;;;;;;;;;;15.00;49.40;;;;;;10275624;28;93698;-61
2024/01/17 13:55:48;;;;;;;;;;;15.00;49.60;;;;;;10283343;28;94435;-62
2024/01/17 14:00:57;;;;;;;;;;;15.00;49.60;;;;;;10293073;28;94138;-62
2024/01/17 14:05:59;;;;;;;;;;;15.00;49.40;;;;;;10264564;28;95863;-62
2024/01/17 14:11:03;;;;;;;;;;;15.10;49.40;;;;;;10270681;28;94066;-62
2024/01/17 14:16:05;;;;;;;;;;;15.00;49.30;;;;;;10271717;28;93569;-62
2024/01/17 14:21:07;;;;;;;;;;;15.00;49.30;;;;;;10287775;28;94719;-62
2024/01/17 14:26:09;;;;;;;;;;;15.00;49.40;;;;;;10285709;28;93630;-62
2024/01/17 14:31:11;;;;;;;;;;;14.90;49.50;;;;;;10271134;28;93987;-62
2024/01/17 14:36:12;;;;;;;;;;;15.00;49.50;;;;;;10281553;28;93577;-62
2024/01/17 14:41:14;;;;;;;;;;;15.00;49.30;;;;;;10273882;28;92565;-62
2024/01/17 14:46:16;;;;;;;;;;;15.00;49.20;;;;;;10273029;28;94399;-62
2024/01/17 14:51:18;;;;;;;;;;;15.00;49.20;;;;;;10265663;28;93398;-62
2024/01/17 14:56:20;;;;;;;;;;;15.00;49.20;;;;;;10279725;28;96780;-62
2024/01/17 15:01:22;;;;;;;;;;;14.90;49.20;;;;;;10276507;28;93966;-62
2024/01/17 15:06:24;;;;;;;;;;;14.90;49.40;;;;;;10277678;28;93614;-62
2024/01/17 15:11:26;;;;;;;;;;;14.90;49.20;;;;;;10282923;28;93828;-62
2024/01/17 15:16:30;;;;;;;;;;;15.00;49.20;;;;;;10284349;28;93435;-62
2024/01/17 15:21:32;;;;;;;;;;;15.00;49.10;;;;;;10276409;28;94376;-63
2024/01/17 15:26:34;;;;;;;;;;;14.90;49.10;;;;;;10274943;28;94442;-62
2024/01/17 15:31:38;;;;;;;;;;;14.90;49.20;;;;;;10287268;28;92708;-62
2024/01/17 15:36:40;;;;;;;;;;;14.90;49.30;;;;;;10279858;28;93825;-70
2024/01/17 15:41:42;;;;;;;;;;;14.90;49.20;;;;;;10271360;28;93553;-62
2024/01/17 15:46:44;;;;;;;;;;;15.00;49.20;;;;;;10279798;28;95273;-62
2024/01/17 15:51:45;;;;;;;;;;;14.90;49.00;;;;;;10280881;28;94208;-62
2024/01/17 15:56:47;;;;;;;;;;;14.90;49.00;;;;;;10282744;28;93368;-63
2024/01/17 16:01:49;;;;;;;;;;;14.80;49.20;;;;;;10286542;28;94250;-61
2024/01/17 16:06:51;;;;;;;;;;;14.90;49.30;;;;;;10287971;28;93715;-62
2024/01/17 16:12:09;;;;;;;;;;;14.90;49.20;;;;;;10294803;28;93306;-61
2024/01/17 16:17:11;;;;;;;;;;;15.00;49.10;;;;;;10297772;28;93721;-62
2024/01/17 16:22:15;;;;;;;;;;;15.20;49.10;;;;;;10285376;28;93690;-62
2024/01/17 16:27:16;;;;;;;;;;;15.50;48.80;;;;;;10297646;28;93486;-62
2024/01/17 16:32:18;;;;;;;;;;;15.70;48.40;;;;;;10283019;28;93685;-62
2024/01/17 16:37:20;;;;;;;;;;;16.00;48.40;;;;;;10284893;28;96784;-63
2024/01/17 16:42:22;;;;;;;;;;;16.40;52.50;;;;;;10275750;28;93431;-63
2024/01/17 16:47:24;;;;;;;;;;;16.60;50.30;;;;;;10270402;28;93571;-65
2024/01/17 16:52:27;;;;;;;;;;;16.90;52.40;;;;;;10274448;28;93527;-65
2024/01/17 16:57:28;;;;;;;;;;;17.10;54.50;;;;;;10261581;28;93857;-63
2024/01/17 17:02:33;;;;;;;;;;;17.40;52.70;;;;;;10268228;28;93497;-65
2024/01/17 17:07:35;;;;;;;;;;;17.50;51.80;;;;;;10266887;28;94210;-63
2024/01/17 17:12:37;;;;;;;;;;;17.70;51.20;;;;;;10271493;28;93146;-63
2024/01/17 17:17:39;;;;;;;;;;;17.90;50.60;;;;;;10260064;28;93849;-64
2024/01/17 17:22:41;;;;;;;;;;;18.10;50.50;;;;;;10270659;28;93248;-63
2024/01/17 17:27:45;;;;;;;;;;;18.20;50.00;;;;;;10259562;28;97055;-62
2024/01/17 17:32:47;;;;;;;;;;;18.30;50.10;;;;;;10265550;28;94493;-63
2024/01/17 17:37:50;;;;;;;;;;;18.40;50.50;;;;;;10271076;28;93569;-63
2024/01/17 17:42:52;;;;;;;;;;;18.40;49.80;;;;;;10283174;28;93917;-64
2024/01/17 17:47:54;;;;;;;;;;;18.50;49.30;;;;;;10274532;28;93539;-64
2024/01/17 17:52:56;;;;;;;;;;;18.50;49.00;;;;;;10276531;28;94775;-64
2024/01/17 17:57:58;;;;;;;;;;;18.70;48.80;;;;;;10268895;28;93686;-64
2024/01/17 18:03:02;;;;;;;;;;;18.70;48.70;;;;;;10273813;28;92727;-65
2024/01/17 18:08:06;;;;;;;;;;;18.80;48.70;;;;;;10275412;28;94277;-64
2024/01/17 18:13:08;;;;;;;;;;;18.90;48.50;;;;;;10300591;28;93959;-64
2024/01/17 18:18:11;;;;;;;;;;;19.00;48.50;;;;;;10306470;28;96396;-65
2024/01/17 18:23:15;;;;;;;;;;;19.10;48.40;;;;;;10304230;28;93640;-64
2024/01/17 18:28:18;;;;;;;;;;;19.20;48.40;;;;;;10289325;28;93861;-64
2024/01/17 18:33:20;;;;;;;;;;;19.20;48.20;;;;;;10278113;28;93772;-64
2024/01/17 18:38:22;;;;;;;;;;;19.30;48.00;;;;;;10264974;28;93710;-64
2024/01/17 18:43:24;;;;;;;;;;;19.30;48.00;;;;;;10266665;28;93557;-65
2024/01/17 18:48:26;;;;;;;;;;;19.30;48.00;;;;;;10269912;28;94513;-64
2024/01/17 18:53:28;;;;;;;;;;;19.30;47.80;;;;;;10263131;28;93023;-64
2024/01/17 18:58:31;;;;;;;;;;;19.30;47.70;;;;;;10266658;28;93597;-63
2024/01/17 19:03:33;;;;;;;;;;;19.40;47.80;;;;;;10273659;28;93475;-63
2024/01/17 19:08:35;;;;;;;;;;;19.40;47.80;;;;;;10269503;28;96034;-63
2024/01/17 19:13:37;;;;;;;;;;;19.40;47.80;;;;;;10277665;28;93545;-65
2024/01/17 19:18:39;;;;;;;;;;;19.40;47.90;;;;;;10290241;28;93935;-63
2024/01/17 19:23:41;;;;;;;;;;;19.50;48.60;;;;;;10276870;28;93674;-63
2024/01/17 19:28:43;;;;;;;;;;;19.50;48.50;;;;;;10270741;28;97144;-64
2024/01/17 19:33:45;;;;;;;;;;;19.50;48.30;;;;;;10278845;28;93973;-64
2024/01/17 19:38:47;;;;;;;;;;;19.50;48.20;;;;;;10283400;28;93722;-64
2024/01/17 19:43:50;;;;;;;;;;;19.50;48.00;;;;;;10284516;28;92717;-64
2024/01/17 19:48:54;;;;;;;;;;;19.50;48.00;;;;;;10284036;28;93990;-64
2024/01/17 19:53:56;;;;;;;;;;;19.50;47.80;;;;;;10278343;28;92809;-64
2024/01/17 19:58:58;;;;;;;;;;;19.60;47.70;;;;;;10282675;28;96862;-65
2024/01/17 20:04:00;;;;;;;;;;;19.60;47.60;;;;;;10268880;28;93763;-64
2024/01/17 20:09:02;;;;;;;;;;;19.60;47.50;;;;;;10275872;28;93710;-64
2024/01/17 20:14:04;;;;;;;;;;;19.60;47.50;;;;;;10273741;28;94446;-64
2024/01/17 20:19:07;;;;;;;;;;;19.70;47.60;;;;;;10284151;28;94369;-63
2024/01/17 20:24:12;;;;;;;;;;;19.70;47.60;;;;;;10284312;28;94206;-64
2024/01/17 20:29:14;;;;;;;;;;;19.60;47.50;;;;;;10285943;28;93572;-64
2024/01/17 20:34:16;;;;;;;;;;;19.50;47.60;;;;;;10278686;28;92734;-64
2024/01/17 20:39:22;;;;;;;;;;;19.30;47.80;;;;;;10278134;28;94579;-64
2024/01/17 20:44:24;;;;;;;;;;;19.20;48.00;;;;;;10271782;28;93561;-64
2024/01/17 20:49:26;;;;;;;;;;;19.00;48.40;;;;;;10277618;28;96815;-64
2024/01/17 20:54:28;;;;;;;;;;;18.70;48.50;;;;;;10283007;28;94625;-64
2024/01/17 20:59:30;;;;;;;;;;;18.50;48.80;;;;;;10281318;28;93379;-63
2024/01/17 21:04:32;;;;;;;;;;;18.40;49.20;;;;;;10282692;28;94365;-64
2024/01/17 21:09:35;;;;;;;;;;;18.10;49.50;;;;;;10282263;28;94192;-63
2024/01/17 21:14:37;;;;;;;;;;;17.90;49.90;;;;;;10278862;28;93775;-64
2024/01/17 21:19:39;;;;;;;;;;;17.70;50.10;;;;;;10279562;28;93470;-64
2024/01/17 21:24:42;;;;;;;;;;;17.60;50.40;;;;;;10277575;28;93191;-64
2024/01/17 21:29:44;;;;;;;;;;;17.50;50.70;;;;;;10275444;28;93454;-64
2024/01/17 21:34:45;;;;;;;;;;;17.30;51.00;;;;;;10279377;28;94006;-64
2024/01/17 21:39:47;;;;;;;;;;;17.20;51.30;;;;;;10286547;28;95921;-63
2024/01/17 21:44:50;;;;;;;;;;;17.10;51.50;;;;;;10275757;28;93088;-64
2024/01/17 21:49:52;;;;;;;;;;;16.90;51.60;;;;;;10270418;28;93317;-64
2024/01/17 21:54:54;;;;;;;;;;;16.80;51.70;;;;;;10291891;28;92903;-64
2024/01/17 21:59:56;;;;;;;;;;;16.70;51.80;;;;;;10283055;28;93368;-69
2024/01/17 22:04:58;;;;;;;;;;;16.60;51.80;;;;;;10284872;28;93386;-64
2024/01/17 22:10:00;;;;;;;;;;;16.60;51.90;;;;;;10288615;28;94140;-64
2024/01/17 22:15:02;;;;;;;;;;;16.50;52.00;;;;;;10284571;28;92859;-64
2024/01/17 22:20:04;;;;;;;;;;;16.40;52.00;;;;;;10282756;28;94154;-65
2024/01/17 22:25:06;;;;;;;;;;;16.40;52.00;;;;;;10265112;28;93209;-64
2024/01/17 22:30:08;;;;;;;;;;;16.30;51.90;;;;;;10256721;28;96741;-64
2024/01/17 22:35:10;;;;;;;;;;;16.30;52.10;;;;;;10268233;28;94596;-63
2024/01/17 22:40:12;;;;;;;;;;;16.20;51.90;;;;;;10277033;28;94406;-64
2024/01/17 22:45:14;;;;;;;;;;;16.10;52.00;;;;;;10265423;28;94388;-64
2024/01/17 22:50:16;;;;;;;;;;;16.00;52.10;;;;;;10283359;28;94292;-64
2024/01/17 22:55:18;;;;;;;;;;;16.00;52.10;;;;;;10272555;28;93460;-64
2024/01/17 23:00:20;;;;;;;;;;;16.00;52.30;;;;;;10276359;28;94392;-65
2024/01/17 23:05:23;;;;;;;;;;;15.90;52.10;;;;;;10259964;28;92829;-64
2024/01/17 23:10:25;;;;;;;;;;;15.90;52.20;;;;;;10264191;28;94009;-64
2024/01/17 23:15:26;;;;;;;;;;;15.90;51.80;;;;;;10281309;28;93493;-64
2024/01/17 23:20:28;;;;;;;;;;;16.00;51.40;;;;;;10270451;28;96267;-64
2024/01/17 23:25:30;;;;;;;;;;;16.10;51.00;;;;;;10282838;28;93441;-64
2024/01/17 23:30:32;;;;;;;;;;;16.10;50.60;;;;;;10265923;28;93382;-64
2024/01/17 23:35:34;;;;;;;;;;;16.10;50.30;;;;;;10270816;28;92897;-64
2024/01/17 23:40:38;;;;;;;;;;;16.10;50.10;;;;;;10287235;28;93440;-73
2024/01/17 23:45:40;;;;;;;;;;;16.00;50.00;;;;;;10288988;28;93385;-64
2024/01/17 23:50:43;;;;;;;;;;;16.00;49.90;;;;;;10298561;28;93881;-63
2024/01/17 23:55:46;;;;;;;;;;;15.90;49.80;;;;;;10283765;28;93705;-64
